sensor_id;sensor_type;location;lat;lon;timestamp;P1;durP1;ratioP1;P2;durP2;ratioP2
51612;SDS011;37694;51.748;14.326;2023-04-21T00:01:19;9.15;;;6.85;;
51612;SDS011;37694;51.748;14.326;2023-04-21T00:03:45;9.85;;;7.90;;
51612;SDS011;37694;51.748;14.326;2023-04-21T00:06:11;9.02;;;7.20;;
51612;SDS011;37694;51.748;14.326;2023-04-21T00:08:37;11.27;;;7.70;;
51612;SDS011;37694;51.748;14.326;2023-04-21T00:11:06;13.02;;;7.80;;
51612;SDS011;37694;51.748;14.326;2023-04-21T00:13:32;9.43;;;6.88;;
51612;SDS011;37694;51.748;14.326;2023-04-21T00:16:00;9.95;;;7.97;;
51612;SDS011;37694;51.748;14.326;2023-04-21T00:18:26;14.15;;;8.35;;
51612;SDS011;37694;51.748;14.326;2023-04-21T00:20:52;8.82;;;6.88;;
51612;SDS011;37694;51.748;14.326;2023-04-21T00:23:18;9.80;;;7.38;;
51612;SDS011;37694;51.748;14.326;2023-04-21T00:25:44;10.23;;;6.82;;
51612;SDS011;37694;51.748;14.326;2023-04-21T00:28:09;8.15;;;6.90;;
51612;SDS011;37694;51.748;14.326;2023-04-21T00:30:35;11.82;;;7.80;;
51612;SDS011;37694;51.748;14.326;2023-04-21T00:33:01;8.77;;;7.43;;
51612;SDS011;37694;51.748;14.326;2023-04-21T00:35:26;11.60;;;7.35;;
51612;SDS011;37694;51.748;14.326;2023-04-21T00:37:52;8.70;;;6.88;;
51612;SDS011;37694;51.748;14.326;2023-04-21T00:40:18;9.30;;;7.05;;
51612;SDS011;37694;51.748;14.326;2023-04-21T00:42:44;10.25;;;7.25;;
51612;SDS011;37694;51.748;14.326;2023-04-21T00:45:10;10.73;;;6.82;;
51612;SDS011;37694;51.748;14.326;2023-04-21T00:47:36;9.25;;;7.60;;
51612;SDS011;37694;51.748;14.326;2023-04-21T00:50:02;11.05;;;8.10;;
51612;SDS011;37694;51.748;14.326;2023-04-21T00:52:28;10.80;;;7.50;;
51612;SDS011;37694;51.748;14.326;2023-04-21T00:54:55;10.23;;;7.30;;
51612;SDS011;37694;51.748;14.326;2023-04-21T00:57:21;14.88;;;7.63;;
51612;SDS011;37694;51.748;14.326;2023-04-21T00:59:47;9.13;;;6.65;;
51612;SDS011;37694;51.748;14.326;2023-04-21T01:02:14;9.70;;;6.72;;
51612;SDS011;37694;51.748;14.326;2023-04-21T01:04:41;8.75;;;6.93;;
51612;SDS011;37694;51.748;14.326;2023-04-21T01:07:07;12.15;;;7.55;;
51612;SDS011;37694;51.748;14.326;2023-04-21T01:09:34;10.15;;;6.80;;
51612;SDS011;37694;51.748;14.326;2023-04-21T01:12:03;9.50;;;6.88;;
51612;SDS011;37694;51.748;14.326;2023-04-21T01:14:29;13.55;;;7.57;;
51612;SDS011;37694;51.748;14.326;2023-04-21T01:16:55;9.77;;;7.15;;
51612;SDS011;37694;51.748;14.326;2023-04-21T01:19:22;8.85;;;6.78;;
51612;SDS011;37694;51.748;14.326;2023-04-21T01:21:49;13.68;;;6.72;;
51612;SDS011;37694;51.748;14.326;2023-04-21T01:24:18;7.32;;;6.55;;
51612;SDS011;37694;51.748;14.326;2023-04-21T01:26:44;12.50;;;7.32;;
51612;SDS011;37694;51.748;14.326;2023-04-21T01:29:13;9.38;;;6.20;;
51612;SDS011;37694;51.748;14.326;2023-04-21T01:31:40;9.00;;;7.05;;
51612;SDS011;37694;51.748;14.326;2023-04-21T01:34:06;9.60;;;6.93;;
51612;SDS011;37694;51.748;14.326;2023-04-21T01:36:32;9.95;;;7.38;;
51612;SDS011;37694;51.748;14.326;2023-04-21T01:38:57;13.18;;;7.32;;
51612;SDS011;37694;51.748;14.326;2023-04-21T01:41:23;11.57;;;7.00;;
51612;SDS011;37694;51.748;14.326;2023-04-21T01:43:49;10.27;;;7.40;;
51612;SDS011;37694;51.748;14.326;2023-04-21T01:46:15;8.02;;;6.38;;
51612;SDS011;37694;51.748;14.326;2023-04-21T01:48:44;9.18;;;7.10;;
51612;SDS011;37694;51.748;14.326;2023-04-21T01:51:10;12.85;;;6.90;;
51612;SDS011;37694;51.748;14.326;2023-04-21T01:53:35;11.25;;;6.88;;
51612;SDS011;37694;51.748;14.326;2023-04-21T01:56:01;9.80;;;6.60;;
51612;SDS011;37694;51.748;14.326;2023-04-21T01:58:27;9.23;;;6.82;;
51612;SDS011;37694;51.748;14.326;2023-04-21T02:00:52;8.68;;;6.72;;
51612;SDS011;37694;51.748;14.326;2023-04-21T02:03:18;9.70;;;6.88;;
51612;SDS011;37694;51.748;14.326;2023-04-21T02:05:44;8.75;;;7.20;;
51612;SDS011;37694;51.748;14.326;2023-04-21T02:08:09;14.02;;;6.63;;
51612;SDS011;37694;51.748;14.326;2023-04-21T02:10:35;10.07;;;7.28;;
51612;SDS011;37694;51.748;14.326;2023-04-21T02:13:00;10.00;;;6.70;;
51612;SDS011;37694;51.748;14.326;2023-04-21T02:15:26;9.65;;;7.00;;
51612;SDS011;37694;51.748;14.326;2023-04-21T02:17:52;9.10;;;6.50;;
51612;SDS011;37694;51.748;14.326;2023-04-21T02:20:17;10.93;;;7.15;;
51612;SDS011;37694;51.748;14.326;2023-04-21T02:22:43;9.20;;;6.95;;
51612;SDS011;37694;51.748;14.326;2023-04-21T02:25:09;12.10;;;6.80;;
51612;SDS011;37694;51.748;14.326;2023-04-21T02:27:34;12.75;;;7.15;;
51612;SDS011;37694;51.748;14.326;2023-04-21T02:30:00;12.65;;;7.45;;
51612;SDS011;37694;51.748;14.326;2023-04-21T02:32:26;8.63;;;6.43;;
51612;SDS011;37694;51.748;14.326;2023-04-21T02:34:52;9.38;;;6.90;;
51612;SDS011;37694;51.748;14.326;2023-04-21T02:37:18;10.63;;;6.63;;
51612;SDS011;37694;51.748;14.326;2023-04-21T02:39:44;9.70;;;6.75;;
51612;SDS011;37694;51.748;14.326;2023-04-21T02:42:09;10.18;;;6.38;;
51612;SDS011;37694;51.748;14.326;2023-04-21T02:44:38;9.90;;;7.10;;
51612;SDS011;37694;51.748;14.326;2023-04-21T02:47:04;8.10;;;6.90;;
51612;SDS011;37694;51.748;14.326;2023-04-21T02:49:29;7.85;;;6.55;;
51612;SDS011;37694;51.748;14.326;2023-04-21T02:51:56;11.43;;;7.20;;
51612;SDS011;37694;51.748;14.326;2023-04-21T02:54:22;15.48;;;7.50;;
51612;SDS011;37694;51.748;14.326;2023-04-21T02:56:48;10.20;;;6.00;;
51612;SDS011;37694;51.748;14.326;2023-04-21T02:59:13;8.18;;;6.78;;
51612;SDS011;37694;51.748;14.326;2023-04-21T03:01:42;15.30;;;7.25;;
51612;SDS011;37694;51.748;14.326;2023-04-21T03:04:07;8.38;;;6.63;;
51612;SDS011;37694;51.748;14.326;2023-04-21T03:06:33;9.13;;;7.03;;
51612;SDS011;37694;51.748;14.326;2023-04-21T03:08:59;9.60;;;6.57;;
51612;SDS011;37694;51.748;14.326;2023-04-21T03:11:24;8.15;;;6.57;;
51612;SDS011;37694;51.748;14.326;2023-04-21T03:13:50;8.93;;;6.75;;
51612;SDS011;37694;51.748;14.326;2023-04-21T03:16:16;8.20;;;7.15;;
51612;SDS011;37694;51.748;14.326;2023-04-21T03:18:41;7.97;;;6.28;;
51612;SDS011;37694;51.748;14.326;2023-04-21T03:21:07;7.78;;;6.13;;
51612;SDS011;37694;51.748;14.326;2023-04-21T03:23:33;9.48;;;6.40;;
51612;SDS011;37694;51.748;14.326;2023-04-21T03:25:58;10.05;;;6.15;;
51612;SDS011;37694;51.748;14.326;2023-04-21T03:28:24;11.77;;;6.38;;
51612;SDS011;37694;51.748;14.326;2023-04-21T03:30:50;8.27;;;6.47;;
51612;SDS011;37694;51.748;14.326;2023-04-21T03:33:15;10.95;;;7.07;;
51612;SDS011;37694;51.748;14.326;2023-04-21T03:35:41;11.65;;;7.15;;
51612;SDS011;37694;51.748;14.326;2023-04-21T03:38:07;7.97;;;6.32;;
51612;SDS011;37694;51.748;14.326;2023-04-21T03:40:32;12.40;;;7.70;;
51612;SDS011;37694;51.748;14.326;2023-04-21T03:42:58;8.90;;;6.72;;
51612;SDS011;37694;51.748;14.326;2023-04-21T03:45:24;9.35;;;6.70;;
51612;SDS011;37694;51.748;14.326;2023-04-21T03:47:53;8.48;;;6.53;;
51612;SDS011;37694;51.748;14.326;2023-04-21T03:50:19;10.40;;;6.75;;
51612;SDS011;37694;51.748;14.326;2023-04-21T03:52:45;9.82;;;6.65;;
51612;SDS011;37694;51.748;14.326;2023-04-21T03:55:11;10.00;;;6.72;;
51612;SDS011;37694;51.748;14.326;2023-04-21T03:57:37;11.20;;;6.90;;
51612;SDS011;37694;51.748;14.326;2023-04-21T04:00:07;10.48;;;7.00;;
51612;SDS011;37694;51.748;14.326;2023-04-21T04:02:34;8.23;;;6.45;;
51612;SDS011;37694;51.748;14.326;2023-04-21T04:05:01;11.25;;;6.97;;
51612;SDS011;37694;51.748;14.326;2023-04-21T04:07:30;10.77;;;6.90;;
51612;SDS011;37694;51.748;14.326;2023-04-21T04:09:56;9.75;;;6.85;;
51612;SDS011;37694;51.748;14.326;2023-04-21T04:12:22;9.18;;;6.15;;
51612;SDS011;37694;51.748;14.326;2023-04-21T04:14:47;8.90;;;6.65;;
51612;SDS011;37694;51.748;14.326;2023-04-21T04:17:13;8.98;;;6.47;;
51612;SDS011;37694;51.748;14.326;2023-04-21T04:19:39;8.15;;;6.57;;
51612;SDS011;37694;51.748;14.326;2023-04-21T04:22:05;8.07;;;6.20;;
51612;SDS011;37694;51.748;14.326;2023-04-21T04:24:31;12.88;;;7.20;;
51612;SDS011;37694;51.748;14.326;2023-04-21T04:26:57;9.18;;;6.45;;
51612;SDS011;37694;51.748;14.326;2023-04-21T04:29:24;8.55;;;6.75;;
51612;SDS011;37694;51.748;14.326;2023-04-21T04:31:51;9.48;;;7.05;;
51612;SDS011;37694;51.748;14.326;2023-04-21T04:34:17;9.88;;;6.40;;
51612;SDS011;37694;51.748;14.326;2023-04-21T04:36:43;9.98;;;5.90;;
51612;SDS011;37694;51.748;14.326;2023-04-21T04:39:09;7.38;;;5.75;;
51612;SDS011;37694;51.748;14.326;2023-04-21T04:41:36;9.07;;;6.38;;
51612;SDS011;37694;51.748;14.326;2023-04-21T04:44:02;9.68;;;6.50;;
51612;SDS011;37694;51.748;14.326;2023-04-21T04:46:29;11.15;;;6.72;;
51612;SDS011;37694;51.748;14.326;2023-04-21T04:48:55;8.80;;;6.47;;
51612;SDS011;37694;51.748;14.326;2023-04-21T04:51:20;12.63;;;6.82;;
51612;SDS011;37694;51.748;14.326;2023-04-21T04:53:47;8.60;;;5.85;;
51612;SDS011;37694;51.748;14.326;2023-04-21T04:56:13;9.57;;;6.38;;
51612;SDS011;37694;51.748;14.326;2023-04-21T04:58:39;10.07;;;6.45;;
51612;SDS011;37694;51.748;14.326;2023-04-21T05:01:16;9.20;;;6.72;;
51612;SDS011;37694;51.748;14.326;2023-04-21T05:03:43;11.63;;;6.38;;
51612;SDS011;37694;51.748;14.326;2023-04-21T05:06:09;10.05;;;6.47;;
51612;SDS011;37694;51.748;14.326;2023-04-21T05:08:35;7.32;;;6.00;;
51612;SDS011;37694;51.748;14.326;2023-04-21T05:11:01;12.80;;;6.75;;
51612;SDS011;37694;51.748;14.326;2023-04-21T05:13:27;11.82;;;6.38;;
51612;SDS011;37694;51.748;14.326;2023-04-21T05:15:56;11.98;;;6.38;;
51612;SDS011;37694;51.748;14.326;2023-04-21T05:18:22;9.73;;;5.93;;
51612;SDS011;37694;51.748;14.326;2023-04-21T05:20:48;11.30;;;6.30;;
51612;SDS011;37694;51.748;14.326;2023-04-21T05:23:13;14.40;;;6.32;;
51612;SDS011;37694;51.748;14.326;2023-04-21T05:25:39;11.57;;;6.80;;
51612;SDS011;37694;51.748;14.326;2023-04-21T05:28:05;16.08;;;6.68;;
51612;SDS011;37694;51.748;14.326;2023-04-21T05:30:31;16.17;;;7.10;;
51612;SDS011;37694;51.748;14.326;2023-04-21T05:32:56;9.23;;;6.68;;
51612;SDS011;37694;51.748;14.326;2023-04-21T05:35:22;13.02;;;6.97;;
51612;SDS011;37694;51.748;14.326;2023-04-21T05:37:47;13.77;;;6.63;;
51612;SDS011;37694;51.748;14.326;2023-04-21T05:40:13;22.58;;;6.88;;
51612;SDS011;37694;51.748;14.326;2023-04-21T05:42:39;20.58;;;7.53;;
51612;SDS011;37694;51.748;14.326;2023-04-21T05:45:04;12.98;;;7.80;;
51612;SDS011;37694;51.748;14.326;2023-04-21T05:47:30;18.88;;;7.07;;
51612;SDS011;37694;51.748;14.326;2023-04-21T05:49:56;17.90;;;7.22;;
51612;SDS011;37694;51.748;14.326;2023-04-21T05:52:22;24.55;;;6.57;;
51612;SDS011;37694;51.748;14.326;2023-04-21T05:54:47;29.88;;;7.28;;
51612;SDS011;37694;51.748;14.326;2023-04-21T05:57:13;34.83;;;8.00;;
51612;SDS011;37694;51.748;14.326;2023-04-21T05:59:40;31.83;;;8.55;;
51612;SDS011;37694;51.748;14.326;2023-04-21T06:02:06;10.18;;;6.68;;
51612;SDS011;37694;51.748;14.326;2023-04-21T06:04:32;39.75;;;9.10;;
51612;SDS011;37694;51.748;14.326;2023-04-21T06:07:03;34.20;;;7.15;;
51612;SDS011;37694;51.748;14.326;2023-04-21T06:09:32;35.55;;;8.60;;
51612;SDS011;37694;51.748;14.326;2023-04-21T06:11:58;66.63;;;12.10;;
51612;SDS011;37694;51.748;14.326;2023-04-21T06:14:24;50.50;;;11.05;;
51612;SDS011;37694;51.748;14.326;2023-04-21T06:16:49;43.33;;;11.75;;
51612;SDS011;37694;51.748;14.326;2023-04-21T06:19:15;37.05;;;11.30;;
51612;SDS011;37694;51.748;14.326;2023-04-21T06:21:41;47.67;;;11.60;;
51612;SDS011;37694;51.748;14.326;2023-04-21T06:24:06;48.95;;;11.82;;
51612;SDS011;37694;51.748;14.326;2023-04-21T06:26:33;34.63;;;11.60;;
51612;SDS011;37694;51.748;14.326;2023-04-21T06:28:59;40.08;;;12.35;;
51612;SDS011;37694;51.748;14.326;2023-04-21T06:31:24;42.17;;;10.52;;
51612;SDS011;37694;51.748;14.326;2023-04-21T06:33:51;37.40;;;10.93;;
51612;SDS011;37694;51.748;14.326;2023-04-21T06:36:16;28.35;;;9.20;;
51612;SDS011;37694;51.748;14.326;2023-04-21T06:38:42;30.20;;;11.02;;
51612;SDS011;37694;51.748;14.326;2023-04-21T06:41:08;44.13;;;10.70;;
51612;SDS011;37694;51.748;14.326;2023-04-21T06:43:34;39.50;;;10.60;;
51612;SDS011;37694;51.748;14.326;2023-04-21T06:46:00;42.47;;;9.80;;
51612;SDS011;37694;51.748;14.326;2023-04-21T06:48:25;25.92;;;10.95;;
51612;SDS011;37694;51.748;14.326;2023-04-21T06:50:51;32.75;;;9.50;;
51612;SDS011;37694;51.748;14.326;2023-04-21T06:53:17;26.02;;;9.80;;
51612;SDS011;37694;51.748;14.326;2023-04-21T06:55:45;19.15;;;9.15;;
51612;SDS011;37694;51.748;14.326;2023-04-21T06:58:11;20.80;;;9.18;;
51612;SDS011;37694;51.748;14.326;2023-04-21T07:00:37;28.98;;;9.95;;
51612;SDS011;37694;51.748;14.326;2023-04-21T07:03:03;25.23;;;9.60;;
51612;SDS011;37694;51.748;14.326;2023-04-21T07:05:28;24.42;;;9.77;;
51612;SDS011;37694;51.748;14.326;2023-04-21T07:07:54;22.15;;;9.15;;
51612;SDS011;37694;51.748;14.326;2023-04-21T07:10:24;19.08;;;8.85;;
51612;SDS011;37694;51.748;14.326;2023-04-21T07:12:50;28.00;;;9.68;;
51612;SDS011;37694;51.748;14.326;2023-04-21T07:15:16;23.67;;;9.82;;
51612;SDS011;37694;51.748;14.326;2023-04-21T07:17:42;25.77;;;10.25;;
51612;SDS011;37694;51.748;14.326;2023-04-21T07:20:08;23.23;;;9.52;;
51612;SDS011;37694;51.748;14.326;2023-04-21T07:22:34;14.15;;;8.13;;
51612;SDS011;37694;51.748;14.326;2023-04-21T07:25:04;20.80;;;9.07;;
51612;SDS011;37694;51.748;14.326;2023-04-21T07:27:33;18.75;;;8.48;;
51612;SDS011;37694;51.748;14.326;2023-04-21T07:30:01;26.25;;;10.38;;
51612;SDS011;37694;51.748;14.326;2023-04-21T07:32:27;17.30;;;7.93;;
51612;SDS011;37694;51.748;14.326;2023-04-21T07:34:53;20.20;;;9.20;;
51612;SDS011;37694;51.748;14.326;2023-04-21T07:37:19;14.63;;;8.57;;
51612;SDS011;37694;51.748;14.326;2023-04-21T07:39:45;19.60;;;9.55;;
51612;SDS011;37694;51.748;14.326;2023-04-21T07:42:11;12.35;;;8.25;;
51612;SDS011;37694;51.748;14.326;2023-04-21T07:44:37;23.35;;;9.35;;
51612;SDS011;37694;51.748;14.326;2023-04-21T07:47:02;17.75;;;9.38;;
51612;SDS011;37694;51.748;14.326;2023-04-21T07:49:29;18.55;;;9.48;;
51612;SDS011;37694;51.748;14.326;2023-04-21T07:51:55;17.85;;;9.18;;
51612;SDS011;37694;51.748;14.326;2023-04-21T07:54:20;16.38;;;8.40;;
51612;SDS011;37694;51.748;14.326;2023-04-21T07:56:46;13.63;;;8.73;;
51612;SDS011;37694;51.748;14.326;2023-04-21T07:59:12;16.15;;;8.40;;
51612;SDS011;37694;51.748;14.326;2023-04-21T08:01:37;14.35;;;7.75;;
51612;SDS011;37694;51.748;14.326;2023-04-21T08:04:03;14.07;;;8.70;;
51612;SDS011;37694;51.748;14.326;2023-04-21T08:06:29;22.85;;;8.65;;
51612;SDS011;37694;51.748;14.326;2023-04-21T08:08:56;14.43;;;9.02;;
51612;SDS011;37694;51.748;14.326;2023-04-21T08:11:22;17.00;;;8.77;;
51612;SDS011;37694;51.748;14.326;2023-04-21T08:13:48;12.95;;;8.23;;
51612;SDS011;37694;51.748;14.326;2023-04-21T08:16:14;12.52;;;7.97;;
51612;SDS011;37694;51.748;14.326;2023-04-21T08:18:40;15.32;;;9.20;;
51612;SDS011;37694;51.748;14.326;2023-04-21T08:21:05;11.23;;;8.55;;
51612;SDS011;37694;51.748;14.326;2023-04-21T08:23:32;14.63;;;8.38;;
51612;SDS011;37694;51.748;14.326;2023-04-21T08:25:57;16.50;;;8.25;;
51612;SDS011;37694;51.748;14.326;2023-04-21T08:28:23;17.58;;;9.32;;
51612;SDS011;37694;51.748;14.326;2023-04-21T08:30:49;12.13;;;8.05;;
51612;SDS011;37694;51.748;14.326;2023-04-21T08:33:14;13.70;;;8.07;;
51612;SDS011;37694;51.748;14.326;2023-04-21T08:35:40;13.63;;;8.25;;
51612;SDS011;37694;51.748;14.326;2023-04-21T08:38:06;13.13;;;8.55;;
51612;SDS011;37694;51.748;14.326;2023-04-21T08:40:33;15.00;;;8.52;;
51612;SDS011;37694;51.748;14.326;2023-04-21T08:43:02;13.85;;;9.15;;
51612;SDS011;37694;51.748;14.326;2023-04-21T08:45:31;14.70;;;8.32;;
51612;SDS011;37694;51.748;14.326;2023-04-21T08:47:58;13.50;;;7.93;;
51612;SDS011;37694;51.748;14.326;2023-04-21T08:50:28;15.02;;;8.63;;
51612;SDS011;37694;51.748;14.326;2023-04-21T08:52:55;13.65;;;7.85;;
51612;SDS011;37694;51.748;14.326;2023-04-21T08:55:25;11.13;;;7.35;;
51612;SDS011;37694;51.748;14.326;2023-04-21T08:57:53;11.52;;;8.77;;
51612;SDS011;37694;51.748;14.326;2023-04-21T09:00:19;12.50;;;7.97;;
51612;SDS011;37694;51.748;14.326;2023-04-21T09:02:52;12.40;;;7.97;;
51612;SDS011;37694;51.748;14.326;2023-04-21T09:05:22;13.02;;;7.65;;
51612;SDS011;37694;51.748;14.326;2023-04-21T09:07:50;12.45;;;8.00;;
51612;SDS011;37694;51.748;14.326;2023-04-21T09:10:21;12.13;;;8.18;;
51612;SDS011;37694;51.748;14.326;2023-04-21T09:12:50;16.73;;;8.23;;
51612;SDS011;37694;51.748;14.326;2023-04-21T09:15:21;11.18;;;7.35;;
51612;SDS011;37694;51.748;14.326;2023-04-21T09:17:49;12.73;;;7.85;;
51612;SDS011;37694;51.748;14.326;2023-04-21T09:20:20;10.65;;;7.65;;
51612;SDS011;37694;51.748;14.326;2023-04-21T09:22:47;12.75;;;8.63;;
51612;SDS011;37694;51.748;14.326;2023-04-21T09:25:15;10.57;;;6.97;;
51612;SDS011;37694;51.748;14.326;2023-04-21T09:27:44;12.40;;;8.15;;
51612;SDS011;37694;51.748;14.326;2023-04-21T09:30:10;13.25;;;8.63;;
51612;SDS011;37694;51.748;14.326;2023-04-21T09:32:37;12.07;;;7.68;;
51612;SDS011;37694;51.748;14.326;2023-04-21T09:35:04;11.98;;;8.68;;
51612;SDS011;37694;51.748;14.326;2023-04-21T09:37:33;11.35;;;7.55;;
51612;SDS011;37694;51.748;14.326;2023-04-21T09:40:00;10.73;;;7.85;;
51612;SDS011;37694;51.748;14.326;2023-04-21T09:42:29;12.05;;;7.20;;
51612;SDS011;37694;51.748;14.326;2023-04-21T09:44:55;12.07;;;7.53;;
51612;SDS011;37694;51.748;14.326;2023-04-21T09:47:21;11.68;;;7.80;;
51612;SDS011;37694;51.748;14.326;2023-04-21T09:49:51;13.70;;;7.60;;
51612;SDS011;37694;51.748;14.326;2023-04-21T09:52:19;10.85;;;7.30;;
51612;SDS011;37694;51.748;14.326;2023-04-21T09:54:50;10.20;;;7.75;;
51612;SDS011;37694;51.748;14.326;2023-04-21T09:57:23;9.57;;;7.65;;
51612;SDS011;37694;51.748;14.326;2023-04-21T09:59:50;10.50;;;8.13;;
51612;SDS011;37694;51.748;14.326;2023-04-21T10:02:22;8.80;;;7.38;;
51612;SDS011;37694;51.748;14.326;2023-04-21T10:04:50;11.23;;;7.32;;
51612;SDS011;37694;51.748;14.326;2023-04-21T10:07:17;13.98;;;8.32;;
51612;SDS011;37694;51.748;14.326;2023-04-21T10:09:44;10.20;;;7.97;;
51612;SDS011;37694;51.748;14.326;2023-04-21T10:12:13;10.98;;;7.68;;
51612;SDS011;37694;51.748;14.326;2023-04-21T10:14:39;13.65;;;7.55;;
51612;SDS011;37694;51.748;14.326;2023-04-21T10:17:05;9.70;;;7.55;;
51612;SDS011;37694;51.748;14.326;2023-04-21T10:19:35;8.35;;;6.78;;
51612;SDS011;37694;51.748;14.326;2023-04-21T10:22:08;11.05;;;7.40;;
51612;SDS011;37694;51.748;14.326;2023-04-21T10:24:38;10.45;;;7.22;;
51612;SDS011;37694;51.748;14.326;2023-04-21T10:27:05;9.23;;;7.07;;
51612;SDS011;37694;51.748;14.326;2023-04-21T10:29:34;10.48;;;6.95;;
51612;SDS011;37694;51.748;14.326;2023-04-21T10:32:00;8.73;;;7.15;;
51612;SDS011;37694;51.748;14.326;2023-04-21T10:34:33;12.27;;;7.88;;
51612;SDS011;37694;51.748;14.326;2023-04-21T10:39:33;9.73;;;6.30;;
51612;SDS011;37694;51.748;14.326;2023-04-21T10:45:05;8.45;;;6.60;;
51612;SDS011;37694;51.748;14.326;2023-04-21T10:50:15;10.00;;;7.28;;
51612;SDS011;37694;51.748;14.326;2023-04-21T10:53:25;7.80;;;6.30;;
51612;SDS011;37694;51.748;14.326;2023-04-21T10:55:36;12.00;;;7.37;;
51612;SDS011;37694;51.748;14.326;2023-04-21T10:58:03;8.13;;;6.22;;
51612;SDS011;37694;51.748;14.326;2023-04-21T11:00:33;8.25;;;6.60;;
51612;SDS011;37694;51.748;14.326;2023-04-21T11:03:02;10.30;;;6.88;;
51612;SDS011;37694;51.748;14.326;2023-04-21T11:05:31;8.95;;;6.40;;
51612;SDS011;37694;51.748;14.326;2023-04-21T11:10:40;12.75;;;7.00;;
51612;SDS011;37694;51.748;14.326;2023-04-21T11:13:16;8.48;;;6.75;;
51612;SDS011;37694;51.748;14.326;2023-04-21T11:18:36;9.20;;;6.63;;
51612;SDS011;37694;51.748;14.326;2023-04-21T11:21:10;9.90;;;6.10;;
51612;SDS011;37694;51.748;14.326;2023-04-21T11:23:40;7.07;;;6.07;;
51612;SDS011;37694;51.748;14.326;2023-04-21T11:26:11;8.90;;;6.30;;
51612;SDS011;37694;51.748;14.326;2023-04-21T11:28:39;7.93;;;6.63;;
51612;SDS011;37694;51.748;14.326;2023-04-21T11:31:08;7.15;;;6.45;;
51612;SDS011;37694;51.748;14.326;2023-04-21T11:33:35;6.80;;;6.10;;
51612;SDS011;37694;51.748;14.326;2023-04-21T11:36:02;7.63;;;6.07;;
51612;SDS011;37694;51.748;14.326;2023-04-21T11:38:36;8.48;;;6.07;;
51612;SDS011;37694;51.748;14.326;2023-04-21T11:41:05;7.88;;;5.05;;
51612;SDS011;37694;51.748;14.326;2023-04-21T11:43:33;8.10;;;6.20;;
51612;SDS011;37694;51.748;14.326;2023-04-21T11:48:58;7.65;;;5.80;;
51612;SDS011;37694;51.748;14.326;2023-04-21T11:51:24;8.25;;;5.82;;
51612;SDS011;37694;51.748;14.326;2023-04-21T11:53:50;6.97;;;6.18;;
51612;SDS011;37694;51.748;14.326;2023-04-21T11:56:16;7.25;;;6.18;;
51612;SDS011;37694;51.748;14.326;2023-04-21T11:58:51;7.63;;;6.80;;
51612;SDS011;37694;51.748;14.326;2023-04-21T12:01:17;8.30;;;5.97;;
51612;SDS011;37694;51.748;14.326;2023-04-21T12:03:54;8.50;;;5.35;;
51612;SDS011;37694;51.748;14.326;2023-04-21T12:06:20;6.90;;;5.55;;
51612;SDS011;37694;51.748;14.326;2023-04-21T12:08:48;8.93;;;5.07;;
51612;SDS011;37694;51.748;14.326;2023-04-21T12:11:19;7.45;;;4.45;;
51612;SDS011;37694;51.748;14.326;2023-04-21T12:13:45;3.90;;;3.60;;
51612;SDS011;37694;51.748;14.326;2023-04-21T12:16:11;3.65;;;3.17;;
51612;SDS011;37694;51.748;14.326;2023-04-21T12:18:37;5.57;;;3.55;;
51612;SDS011;37694;51.748;14.326;2023-04-21T12:21:02;3.88;;;2.75;;
51612;SDS011;37694;51.748;14.326;2023-04-21T12:23:28;8.13;;;2.85;;
51612;SDS011;37694;51.748;14.326;2023-04-21T12:25:54;4.55;;;2.05;;
51612;SDS011;37694;51.748;14.326;2023-04-21T12:28:20;6.05;;;2.08;;
51612;SDS011;37694;51.748;14.326;2023-04-21T12:30:45;7.82;;;2.10;;
51612;SDS011;37694;51.748;14.326;2023-04-21T12:33:11;8.30;;;2.40;;
51612;SDS011;37694;51.748;14.326;2023-04-21T12:35:37;3.10;;;2.15;;
51612;SDS011;37694;51.748;14.326;2023-04-21T12:38:03;8.18;;;1.63;;
51612;SDS011;37694;51.748;14.326;2023-04-21T12:40:29;1.40;;;1.30;;
51612;SDS011;37694;51.748;14.326;2023-04-21T12:42:54;4.82;;;1.85;;
51612;SDS011;37694;51.748;14.326;2023-04-21T12:45:20;1.45;;;1.35;;
51612;SDS011;37694;51.748;14.326;2023-04-21T12:47:45;4.22;;;1.50;;
51612;SDS011;37694;51.748;14.326;2023-04-21T12:50:12;1.70;;;1.40;;
51612;SDS011;37694;51.748;14.326;2023-04-21T12:52:38;1.20;;;0.90;;
51612;SDS011;37694;51.748;14.326;2023-04-21T12:55:03;2.45;;;1.08;;
51612;SDS011;37694;51.748;14.326;2023-04-21T12:57:30;1.17;;;1.08;;
51612;SDS011;37694;51.748;14.326;2023-04-21T12:59:56;0.80;;;0.80;;
51612;SDS011;37694;51.748;14.326;2023-04-21T13:02:22;0.90;;;0.90;;
51612;SDS011;37694;51.748;14.326;2023-04-21T13:04:48;1.13;;;1.13;;
51612;SDS011;37694;51.748;14.326;2023-04-21T13:07:13;3.05;;;0.90;;
51612;SDS011;37694;51.748;14.326;2023-04-21T13:09:40;0.82;;;0.82;;
51612;SDS011;37694;51.748;14.326;2023-04-21T13:12:06;1.42;;;0.80;;
51612;SDS011;37694;51.748;14.326;2023-04-21T13:14:31;0.80;;;0.80;;
51612;SDS011;37694;51.748;14.326;2023-04-21T13:16:57;3.10;;;1.13;;
51612;SDS011;37694;51.748;14.326;2023-04-21T13:19:23;2.08;;;1.10;;
51612;SDS011;37694;51.748;14.326;2023-04-21T13:21:50;0.98;;;0.98;;
51612;SDS011;37694;51.748;14.326;2023-04-21T13:24:16;1.75;;;1.20;;
51612;SDS011;37694;51.748;14.326;2023-04-21T13:26:41;1.25;;;1.13;;
51612;SDS011;37694;51.748;14.326;2023-04-21T13:29:07;1.17;;;1.15;;
51612;SDS011;37694;51.748;14.326;2023-04-21T13:31:33;1.42;;;1.13;;
51612;SDS011;37694;51.748;14.326;2023-04-21T13:33:59;1.05;;;1.05;;
51612;SDS011;37694;51.748;14.326;2023-04-21T13:36:25;2.75;;;1.27;;
51612;SDS011;37694;51.748;14.326;2023-04-21T13:38:51;1.40;;;1.30;;
51612;SDS011;37694;51.748;14.326;2023-04-21T13:41:18;1.15;;;1.15;;
51612;SDS011;37694;51.748;14.326;2023-04-21T13:43:43;1.77;;;1.38;;
51612;SDS011;37694;51.748;14.326;2023-04-21T13:46:10;1.38;;;1.00;;
51612;SDS011;37694;51.748;14.326;2023-04-21T13:48:36;1.25;;;1.15;;
51612;SDS011;37694;51.748;14.326;2023-04-21T13:51:02;1.27;;;1.20;;
51612;SDS011;37694;51.748;14.326;2023-04-21T13:53:28;1.40;;;1.30;;
51612;SDS011;37694;51.748;14.326;2023-04-21T13:55:53;1.98;;;1.50;;
51612;SDS011;37694;51.748;14.326;2023-04-21T13:58:20;1.92;;;1.15;;
51612;SDS011;37694;51.748;14.326;2023-04-21T14:00:46;1.45;;;1.35;;
51612;SDS011;37694;51.748;14.326;2023-04-21T14:03:12;2.65;;;1.55;;
51612;SDS011;37694;51.748;14.326;2023-04-21T14:05:38;3.08;;;1.50;;
51612;SDS011;37694;51.748;14.326;2023-04-21T14:08:03;1.70;;;1.60;;
51612;SDS011;37694;51.748;14.326;2023-04-21T14:10:29;2.40;;;1.17;;
51612;SDS011;37694;51.748;14.326;2023-04-21T14:12:55;2.00;;;1.73;;
51612;SDS011;37694;51.748;14.326;2023-04-21T14:15:21;2.85;;;2.00;;
51612;SDS011;37694;51.748;14.326;2023-04-21T14:17:46;1.70;;;1.60;;
51612;SDS011;37694;51.748;14.326;2023-04-21T14:20:12;1.63;;;1.52;;
51612;SDS011;37694;51.748;14.326;2023-04-21T14:22:38;2.28;;;1.60;;
51612;SDS011;37694;51.748;14.326;2023-04-21T14:25:04;1.83;;;1.73;;
51612;SDS011;37694;51.748;14.326;2023-04-21T14:27:29;4.70;;;1.98;;
51612;SDS011;37694;51.748;14.326;2023-04-21T14:29:56;3.38;;;1.40;;
51612;SDS011;37694;51.748;14.326;2023-04-21T14:32:23;3.70;;;1.92;;
51612;SDS011;37694;51.748;14.326;2023-04-21T14:34:49;1.75;;;1.65;;
51612;SDS011;37694;51.748;14.326;2023-04-21T14:37:17;1.75;;;1.65;;
51612;SDS011;37694;51.748;14.326;2023-04-21T14:39:44;1.83;;;1.60;;
51612;SDS011;37694;51.748;14.326;2023-04-21T14:42:09;3.95;;;2.00;;